Time;durP1;ratioP1;P1;durP2;ratioP2;P2;SDS_P1;SDS_P2;PMS_P1;PMS_P2;Temp;Humidity;BMP_temperature;BMP_pressure;BME280_temperature;BME280_humidity;BME280_pressure;Samples;Min_cycle;Max_cycle;Signal;HPM_P1;HPM_P2
2021/10/24 00:00:53;;;;;;;36.15;19.38;;;;;;;7.22;90.93;102593.44;5039888;28;20028;-47
2021/10/24 00:03:18;;;;;;;40.08;20.77;;;;;;;7.17;90.58;102598.28;5052454;28;20040;-45
2021/10/24 00:05:44;;;;;;;36.95;19.20;;;;;;;7.14;90.66;102593.16;5050005;28;20025;-46
2021/10/24 00:08:09;;;;;;;32.95;19.75;;;;;;;7.12;91.01;102594.25;5052452;28;20108;-46
2021/10/24 00:10:34;;;;;;;39.40;20.92;;;;;;;7.09;90.89;102594.50;5052384;28;20021;-45
2021/10/24 00:13:00;;;;;;;42.08;22.13;;;;;;;7.05;90.83;102591.16;5041671;28;20122;-45
2021/10/24 00:15:25;;;;;;;49.45;20.83;;;;;;;7.02;90.74;102589.56;5050126;28;20082;-45
2021/10/24 00:17:51;;;;;;;48.53;21.13;;;;;;;6.99;90.86;102583.59;5051744;28;20132;-45
2021/10/24 00:20:16;;;;;;;37.10;19.85;;;;;;;6.95;90.68;102588.34;5052050;28;20021;-45
2021/10/24 00:22:42;;;;;;;38.83;21.48;;;;;;;6.90;90.79;102581.59;5052727;28;20497;-46
2021/10/24 00:25:08;;;;;;;44.15;22.38;;;;;;;6.86;91.00;102577.47;5050090;28;20063;-45
2021/10/24 00:27:34;;;;;;;43.60;22.90;;;;;;;6.87;91.32;102579.16;5032952;28;20037;-45
2021/10/24 00:29:59;;;;;;;41.53;22.60;;;;;;;6.85;91.54;102575.78;5031438;28;20384;-46
2021/10/24 00:32:25;;;;;;;42.33;20.35;;;;;;;6.80;91.37;102576.13;5034112;28;20112;-45
2021/10/24 00:34:50;;;;;;;52.38;22.33;;;;;;;6.76;91.09;102572.78;5032865;28;20053;-45
2021/10/24 00:37:15;;;;;;;38.72;19.90;;;;;;;6.73;91.11;102567.69;5041959;28;20033;-45
2021/10/24 00:39:41;;;;;;;50.47;21.88;;;;;;;6.72;91.17;102576.69;5032542;28;20026;-45
2021/10/24 00:42:06;;;;;;;45.92;21.48;;;;;;;6.66;91.11;102571.78;5032393;28;20025;-44
2021/10/24 00:44:33;;;;;;;37.28;22.00;;;;;;;6.63;91.14;102571.16;5031415;28;20116;-45
2021/10/24 00:47:00;;;;;;;36.85;20.60;;;;;;;6.60;91.08;102572.22;5050264;28;20170;-44
2021/10/24 00:49:26;;;;;;;37.78;19.88;;;;;;;6.59;91.38;102562.50;5034243;28;20059;-45
2021/10/24 00:51:52;;;;;;;42.35;21.88;;;;;;;6.55;91.40;102574.38;5032566;28;20040;-45
2021/10/24 00:54:25;;;;;;;38.67;19.88;;;;;;;6.53;91.18;102570.97;5032760;28;20037;-44
2021/10/24 00:56:53;;;;;;;38.55;21.73;;;;;;;6.50;91.36;102565.84;5047775;28;20025;-46
2021/10/24 00:59:19;;;;;;;;;;;;;;;6.46;91.31;102567.91;5052953;28;20037;-45
2021/10/24 01:01:44;;;;;;;46.50;22.58;;;;;;;6.46;91.48;102564.38;5052381;28;19928;-45
2021/10/24 01:04:10;;;;;;;45.47;21.92;;;;;;;6.42;91.41;102557.53;5037861;28;20041;-47
2021/10/24 01:06:37;;;;;;;44.78;21.80;;;;;;;6.38;91.28;102563.13;5047985;28;20447;-45
2021/10/24 01:09:07;;;;;;;50.97;22.33;;;;;;;6.35;91.36;102566.03;5052518;28;20037;-45
2021/10/24 01:11:33;;;;;;;40.92;21.15;;;;;;;6.35;91.56;102563.34;5037692;28;20029;-44
2021/10/24 01:13:58;;;;;;;45.80;22.50;;;;;;;6.32;91.42;102558.22;5032386;28;20496;-45
2021/10/24 01:16:25;;;;;;;36.85;19.80;;;;;;;6.30;91.53;102565.50;5032223;28;20032;-45
2021/10/24 01:18:50;;;;;;;39.78;20.98;;;;;;;6.28;91.34;102562.06;5031061;28;20053;-45
2021/10/24 01:21:16;;;;;;;55.45;22.38;;;;;;;6.25;91.61;102551.63;5032434;28;20096;-45
2021/10/24 01:23:42;;;;;;;38.75;20.92;;;;;;;6.25;91.50;102551.63;5032484;28;20117;-45
2021/10/24 01:26:08;;;;;;;39.95;21.52;;;;;;;6.23;91.65;102545.50;5032294;28;20072;-44
2021/10/24 01:28:34;;;;;;;39.75;22.20;;;;;;;6.21;91.44;102550.13;5032309;28;20109;-45
2021/10/24 01:31:00;;;;;;;46.03;22.90;;;;;;;6.20;91.71;102545.75;5032668;28;20538;-45
2021/10/24 01:33:27;;;;;;;43.50;21.98;;;;;;;6.18;91.77;102547.66;5035958;28;20021;-45
2021/10/24 01:35:58;;;;;;;40.20;20.15;;;;;;;6.15;91.25;102545.22;5036936;28;20018;-44
2021/10/24 01:38:24;;;;;;;42.40;21.63;;;;;;;6.12;91.39;102546.28;5044653;28;20024;-44
2021/10/24 01:40:51;;;;;;;43.65;21.30;;;;;;;6.12;91.49;102537.44;5055847;28;20033;-45
2021/10/24 01:43:18;;;;;;;41.53;21.92;;;;;;;6.08;91.47;102533.25;5044727;28;20112;-45
2021/10/24 01:45:43;;;;;;;36.28;19.95;;;;;;;6.06;91.49;102535.22;5035887;28;20037;-45
2021/10/24 01:48:09;;;;;;;34.28;19.88;;;;;;;6.04;91.59;102526.44;5040860;28;20036;-45
2021/10/24 01:50:35;;;;;;;38.90;20.90;;;;;;;6.00;91.30;102527.63;5051034;28;20065;-45
2021/10/24 01:53:00;;;;;;;38.17;21.33;;;;;;;5.99;91.62;102524.09;5054743;28;20032;-44
2021/10/24 01:55:25;;;;;;;41.50;22.10;;;;;;;5.97;91.45;102519.81;5054994;28;20162;-45
2021/10/24 01:57:53;;;;;;;38.95;21.88;;;;;;;5.96;91.54;102524.31;5046900;28;20060;-44
2021/10/24 02:00:20;;;;;;;51.88;25.08;;;;;;;5.95;91.65;102522.63;5034991;28;20033;-45
2021/10/24 02:02:45;;;;;;;44.88;22.55;;;;;;;5.94;91.94;102519.06;5034910;28;20018;-45
2021/10/24 02:05:11;;;;;;;39.95;22.67;;;;;;;5.91;91.88;102515.75;5034818;28;20445;-44
2021/10/24 02:07:37;;;;;;;42.70;21.48;;;;;;;5.89;92.03;102512.31;5045502;28;20037;-45
2021/10/24 02:10:04;;;;;;;39.17;22.48;;;;;;;5.86;91.65;102516.06;5034681;28;20029;-46
2021/10/24 02:12:30;;;;;;;46.47;23.60;;;;;;;5.86;91.88;102516.06;5037861;28;20049;-44
2021/10/24 02:14:55;;;;;;;43.13;21.20;;;;;;;5.81;91.31;102504.00;5054560;28;20476;-44
2021/10/24 02:17:20;;;;;;;40.65;21.38;;;;;;;5.79;91.58;102512.13;5051815;28;20032;-44
2021/10/24 02:19:46;;;;;;;38.47;20.27;;;;;;;5.78;91.44;102505.09;5034453;28;20033;-45
2021/10/24 02:22:11;;;;;;;38.58;21.20;;;;;;;5.76;91.67;102498.97;5035094;28;20031;-45
2021/10/24 02:24:37;;;;;;;45.72;22.90;;;;;;;5.73;91.87;102501.88;5034308;28;20028;-45
2021/10/24 02:27:02;;;;;;;46.95;22.85;;;;;;;5.70;91.77;102500.28;5034392;28;20052;-44
2021/10/24 02:29:28;;;;;;;42.95;22.25;;;;;;;5.68;91.76;102494.19;5034636;28;20029;-45
2021/10/24 02:31:53;;;;;;;44.30;22.20;;;;;;;5.69;91.58;102489.72;5034295;28;20044;-45
2021/10/24 02:34:18;;;;;;;41.30;21.58;;;;;;;5.68;91.83;102490.66;5054122;28;20388;-44
2021/10/24 02:36:43;;;;;;;37.08;21.30;;;;;;;5.68;91.77;102488.00;5052312;28;20445;-45
2021/10/24 02:39:09;;;;;;;46.88;23.40;;;;;;;5.66;91.81;102492.59;5037176;28;20496;-44
2021/10/24 02:41:34;;;;;;;35.05;22.10;;;;;;;5.66;91.55;102484.56;5034240;28;20045;-43
2021/10/24 02:44:00;;;;;;;44.65;22.83;;;;;;;5.65;91.70;102483.72;5032326;28;20355;-45
2021/10/24 02:46:25;;;;;;;41.80;22.33;;;;;;;5.64;91.75;102486.53;5034032;28;20029;-44
2021/10/24 02:48:50;;;;;;;36.85;21.80;;;;;;;5.62;91.69;102481.28;5049884;28;20033;-45
2021/10/24 02:51:16;;;;;;;41.67;21.73;;;;;;;5.62;91.59;102472.41;5053675;28;20036;-47
2021/10/24 02:53:41;;;;;;;40.70;21.38;;;;;;;5.58;91.71;102470.91;5053164;28;20029;-44
2021/10/24 02:56:06;;;;;;;40.70;21.77;;;;;;;5.57;91.54;102474.56;5054110;28;20087;-46
2021/10/24 02:58:32;;;;;;;39.78;21.42;;;;;;;5.55;91.40;102466.66;5051850;28;20029;-45
2021/10/24 03:00:57;;;;;;;48.33;22.20;;;;;;;5.54;91.42;102472.97;5046705;28;20087;-45
2021/10/24 03:03:23;;;;;;;39.83;21.67;;;;;;;5.52;91.46;102466.03;5033757;28;20029;-45
2021/10/24 03:05:48;;;;;;;38.80;21.50;;;;;;;5.50;91.46;102474.13;5036522;28;20021;-44
2021/10/24 03:08:13;;;;;;;35.85;20.67;;;;;;;5.49;91.25;102467.09;5051643;28;20399;-45
2021/10/24 03:10:39;;;;;;;41.90;23.40;;;;;;;5.46;91.62;102462.81;5053341;28;20032;-44
2021/10/24 03:13:04;;;;;;;43.05;23.02;;;;;;;5.44;91.92;102459.41;5053412;28;20029;-45
2021/10/24 03:15:30;;;;;;;54.38;26.60;;;;;;;5.47;92.00;102461.00;5053119;28;20132;-45
2021/10/24 03:17:56;;;;;;;45.90;23.88;;;;;;;5.44;91.81;102453.22;5049857;28;20531;-45
2021/10/24 03:20:21;;;;;;;42.05;24.05;;;;;;;5.43;91.70;102452.38;5036245;28;20113;-44
2021/10/24 03:22:46;;;;;;;40.65;22.83;;;;;;;5.42;91.50;102455.13;5052653;28;20384;-45
2021/10/24 03:25:12;;;;;;;39.67;22.65;;;;;;;5.40;91.72;102451.75;5053021;28;20056;-44
2021/10/24 03:27:37;;;;;;;43.65;23.10;;;;;;;5.37;91.90;102450.13;5051343;28;20472;-43
2021/10/24 03:30:03;;;;;;;40.88;22.65;;;;;;;5.36;91.48;102453.75;5052878;28;20377;-44
2021/10/24 03:32:28;;;;;;;42.58;22.92;;;;;;;5.37;91.49;102449.25;5052884;28;20021;-44
2021/10/24 03:34:54;;;;;;;43.92;23.33;;;;;;;5.35;91.62;102451.22;5052942;28;20061;-43
2021/10/24 03:37:19;;;;;;;39.97;22.52;;;;;;;5.34;91.94;102452.16;5037999;28;20025;-44
2021/10/24 03:39:45;;;;;;;40.38;23.30;;;;;;;5.31;92.16;102442.53;5052633;28;20036;-43
2021/10/24 03:42:10;;;;;;;54.58;24.60;;;;;;;5.32;91.80;102443.38;5052594;28;20021;-44
2021/10/24 03:44:36;;;;;;;44.13;23.77;;;;;;;5.31;92.00;102445.22;5052551;28;20548;-44
2021/10/24 03:47:01;;;;;;;47.97;26.10;;;;;;;5.31;92.09;102442.53;5051006;28;20024;-43
2021/10/24 03:49:27;;;;;;;43.58;24.20;;;;;;;5.32;92.27;102443.38;5033071;28;20108;-44
2021/10/24 03:51:52;;;;;;;49.75;25.77;;;;;;;5.31;92.38;102441.69;5033100;28;20025;-43
2021/10/24 03:54:17;;;;;;;54.92;25.90;;;;;;;5.33;92.28;102443.28;5031931;28;20094;-44
2021/10/24 07:45:52;;;;;;;23.60;12.05;;;;;;;8.56;80.07;102310.03;5069949;28;20919;-45
2021/10/24 07:48:19;;;;;;;20.38;10.18;;;;;;;9.32;74.12;102304.25;5070124;28;20037;-45
2021/10/24 07:50:45;;;;;;;20.93;10.00;;;;;;;10.37;70.46;102314.31;5070931;28;20028;-46
2021/10/24 07:53:11;;;;;;;18.15;9.85;;;;;;;10.57;68.03;102303.53;5069410;28;20083;-45
2021/10/24 07:55:36;;;;;;;17.52;9.02;;;;;;;11.01;66.55;102312.72;5052518;28;20090;-45
2021/10/24 07:58:02;;;;;;;14.98;8.68;;;;;;;11.13;65.38;102316.91;5064859;28;20123;-44
2021/10/24 08:00:28;;;;;;;15.60;9.20;;;;;;;11.20;64.61;102309.94;5064168;28;20517;-45
2021/10/24 08:02:54;;;;;;;13.82;8.63;;;;;;;11.72;63.55;102300.38;5049744;28;20065;-45
2021/10/24 08:05:19;;;;;;;15.55;7.93;;;;;;;12.64;61.14;102301.81;5050589;28;20055;-46
2021/10/24 08:07:45;;;;;;;12.30;7.32;;;;;;;12.40;60.51;102297.94;5057449;28;20433;-44
2021/10/24 08:10:11;;;;;;;14.18;7.38;;;;;;;12.94;59.77;102295.88;5050268;28;20033;-47
2021/10/24 08:12:37;;;;;;;15.90;7.05;;;;;;;13.09;58.38;102296.13;5053949;28;20163;-46
2021/10/24 08:15:03;;;;;;;15.02;7.82;;;;;;;13.30;58.16;102298.41;5069243;28;20103;-47
2021/10/24 08:17:28;;;;;;;13.55;7.40;;;;;;;13.13;57.54;102296.63;5068942;28;20029;-45
2021/10/24 08:19:54;;;;;;;13.82;7.15;;;;;;;13.09;57.82;102279.06;5063625;28;20022;-47
2021/10/24 08:22:19;;;;;;;10.70;7.20;;;;;;;12.94;58.02;102285.06;5054162;28;20491;-46
2021/10/24 08:24:45;;;;;;;9.82;6.65;;;;;;;13.28;57.07;102277.97;5048822;28;20394;-47
2021/10/24 08:27:11;;;;;;;10.05;6.47;;;;;;;14.38;54.78;102286.66;5048471;28;20017;-48
2021/10/24 08:29:39;;;;;;;11.40;6.38;;;;;;;14.12;54.48;102279.56;5049107;28;20118;-44
2021/10/24 08:32:06;;;;;;;16.25;7.32;;;;;;;13.83;55.02;102286.34;5049169;28;20029;-44
2021/10/24 08:34:32;;;;;;;14.57;6.60;;;;;;;13.22;56.41;102279.44;5044627;28;20037;-43
2021/10/24 08:36:58;;;;;;;14.65;5.68;;;;;;;14.14;54.37;102269.44;5063488;28;20037;-45
2021/10/24 08:39:23;;;;;;;11.80;5.93;;;;;;;14.13;53.89;102267.72;5068753;28;20037;-46
2021/10/24 08:41:50;;;;;;;13.27;6.13;;;;;;;13.96;54.97;102269.59;5068144;28;20021;-46
2021/10/24 08:44:16;;;;;;;11.50;6.40;;;;;;;14.16;53.46;102272.78;5065608;28;20083;-45
2021/10/24 08:46:42;;;;;;;11.48;6.07;;;;;;;15.21;51.31;102263.69;5063630;28;20472;-47
2021/10/24 08:49:09;;;;;;;10.55;5.93;;;;;;;14.80;51.90;102272.88;5052479;28;20033;-46
2021/10/24 08:51:35;;;;;;;14.90;5.38;;;;;;;14.89;52.40;102270.97;5051406;28;20041;-47
2021/10/24 08:54:01;;;;;;;8.88;6.00;;;;;;;14.33;53.06;102261.97;5049871;28;20040;-49
2021/10/24 08:56:29;;;;;;;14.00;6.13;;;;;;;13.69;54.55;102265.38;5041266;28;20033;-45
2021/10/24 08:58:55;;;;;;;;;;;;;;;12.88;55.74;102266.81;5047629;28;20028;-47
2021/10/24 09:01:20;;;;;;;15.63;6.00;;;;;;;13.07;56.52;102260.28;5039647;28;19913;-46
2021/10/24 09:04:08;;;;;;;14.18;6.22;;;;;;;12.14;58.76;102256.56;5040155;28;20435;-47
2021/10/24 09:06:56;;;;;;;11.02;6.45;;;;;;;11.83;60.14;102254.28;5035923;28;20032;-47
2021/10/24 09:09:32;;;;;;;14.98;6.70;;;;;;;11.16;61.07;102251.97;5033659;28;20492;-45
2021/10/24 09:12:03;;;;;;;14.27;6.82;;;;;;;11.00;62.31;102243.66;5046297;28;20032;-47
2021/10/24 09:14:54;;;;;;;11.50;6.53;;;;;;;11.18;61.75;102241.00;5054102;28;20029;-46
2021/10/24 09:17:31;;;;;;;10.75;6.15;;;;;;;10.94;62.31;102247.81;5042800;28;20115;-45
2021/10/24 09:20:02;;;;;;;10.90;6.70;;;;;;;11.13;62.42;102235.22;5044094;28;20029;-47
2021/10/24 09:22:41;;;;;;;12.30;6.20;;;;;;;11.20;62.34;102231.78;5048155;28;20697;-48
2021/10/24 09:25:15;;;;;;;11.35;5.95;;;;;;;11.04;62.73;102237.00;5049434;28;20051;-45
2021/10/24 09:27:50;;;;;;;15.85;7.13;;;;;;;10.75;64.22;102238.00;5048373;28;20029;-47
2021/10/24 09:30:21;;;;;;;14.73;7.05;;;;;;;10.76;64.02;102233.44;5033337;28;20037;-49
2021/10/24 09:32:56;;;;;;;10.90;6.90;;;;;;;10.65;64.01;102234.50;5039711;28;20043;-47
2021/10/24 09:35:26;;;;;;;15.23;7.10;;;;;;;10.91;64.31;102233.81;5042837;28;20592;-45
2021/10/24 09:37:52;;;;;;;12.05;6.55;;;;;;;11.27;63.69;102239.25;5053521;28;20124;-48
2021/10/24 09:40:19;;;;;;;10.55;6.00;;;;;;;11.06;63.23;102235.00;5053468;28;20037;-47
2021/10/24 09:42:45;;;;;;;13.57;7.10;;;;;;;10.94;64.36;102236.19;5048234;28;20414;-48
2021/10/24 09:45:13;;;;;;;11.23;6.63;;;;;;;10.92;63.62;102228.25;5050688;28;20060;-46
2021/10/24 09:47:38;;;;;;;;;;;;;;;11.16;63.66;102218.75;5054798;28;20542;-49
2021/10/24 09:50:05;;;;;;;11.98;6.28;;;;;;;11.15;64.00;102226.00;5033053;28;19912;-43
2021/10/24 09:52:32;;;;;;;13.48;6.25;;;;;;;11.28;63.72;102222.09;5033461;28;20040;-46
2021/10/24 09:54:59;;;;;;;15.90;7.20;;;;;;;11.38;63.43;102222.88;5045452;28;20029;-48
2021/10/24 09:57:24;;;;;;;8.23;5.90;;;;;;;11.24;63.07;102226.06;5027990;28;20284;-44
2021/10/24 09:59:53;;;;;;;13.20;6.75;;;;;;;11.25;62.09;102223.25;5033717;28;20026;-46
2021/10/24 10:02:19;;;;;;;12.52;6.45;;;;;;;11.06;62.84;102208.06;5046010;28;20032;-46
2021/10/24 10:04:45;;;;;;;14.75;7.18;;;;;;;10.97;62.95;102217.03;5039075;28;20032;-48
2021/10/24 10:07:11;;;;;;;10.82;6.32;;;;;;;11.02;63.21;102211.19;5033144;28;20494;-47
2021/10/24 10:09:37;;;;;;;15.05;6.63;;;;;;;11.11;63.06;102204.88;5047228;28;20124;-46
2021/10/24 10:12:04;;;;;;;12.35;7.03;;;;;;;11.38;62.00;102212.09;5047143;28;20472;-45
2021/10/24 10:14:31;;;;;;;14.35;6.05;;;;;;;11.57;61.64;102211.91;5068097;28;20036;-46
2021/10/24 10:17:08;;;;;;;10.20;6.50;;;;;;;11.58;62.23;102213.59;5040465;28;20040;-44
2021/10/24 10:19:35;;;;;;;11.82;6.43;;;;;;;11.49;61.83;102211.84;5037231;28;20284;-45
2021/10/24 10:22:24;;;;;;;12.07;6.20;;;;;;;11.78;62.24;102208.06;5039641;28;20168;-46
2021/10/24 10:25:04;;;;;;;12.65;5.95;;;;;;;11.99;60.67;102211.28;5044828;28;20340;-47
2021/10/24 10:27:36;;;;;;;16.48;6.75;;;;;;;12.15;60.89;102207.00;5044527;28;20400;-45
2021/10/24 10:30:05;;;;;;;11.70;7.07;;;;;;;12.37;58.75;102209.13;5033245;28;20037;-46
2021/10/24 10:32:49;;;;;;;9.43;5.75;;;;;;;12.85;58.58;102217.63;5046583;28;20025;-45
2021/10/24 10:35:18;;;;;;;14.73;6.60;;;;;;;12.73;59.16;102215.22;5052772;28;20025;-44
2021/10/24 10:37:51;;;;;;;12.80;6.40;;;;;;;12.66;58.67;102213.34;5045812;28;20033;-46
2021/10/24 10:40:23;;;;;;;12.30;6.57;;;;;;;12.72;59.62;102212.72;5043643;28;20025;-45
2021/10/24 10:43:11;;;;;;;11.18;6.38;;;;;;;12.56;58.43;102209.91;5033063;28;20423;-46
2021/10/24 10:45:39;;;;;;;13.48;6.65;;;;;;;12.78;57.84;102209.34;5046850;28;20413;-45
2021/10/24 10:48:06;;;;;;;10.82;6.03;;;;;;;12.98;58.78;102199.13;5041380;28;20156;-45
2021/10/24 10:50:38;;;;;;;12.57;6.18;;;;;;;12.80;58.90;102195.69;5038107;28;20480;-46
2021/10/24 10:53:31;;;;;;;13.43;6.63;;;;;;;12.57;58.70;102192.72;5039644;28;20033;-45
2021/10/24 10:55:57;;;;;;;12.20;7.40;;;;;;;12.32;59.71;102199.84;5032936;28;20493;-45
2021/10/24 10:58:31;;;;;;;10.38;6.60;;;;;;;12.45;60.62;102200.25;5036954;28;20060;-45
2021/10/24 11:00:57;;;;;;;15.65;6.93;;;;;;;12.39;60.64;102196.34;5036606;28;20036;-48
2021/10/24 11:03:59;;;;;;;10.82;6.57;;;;;;;12.78;59.42;102203.94;5037513;28;20021;-44
2021/10/24 11:06:27;;;;;;;14.18;6.30;;;;;;;12.95;58.57;102202.13;5029772;28;20045;-47
2021/10/24 11:08:56;;;;;;;9.10;5.35;;;;;;;12.67;59.76;102193.44;5043252;28;20049;-45
2021/10/24 11:11:40;;;;;;;11.05;5.85;;;;;;;13.11;57.93;102201.31;5032663;28;20384;-47
2021/10/24 11:14:11;;;;;;;14.35;5.90;;;;;;;12.85;58.90;102201.41;5043529;28;20468;-47
2021/10/24 11:16:38;;;;;;;14.93;6.45;;;;;;;12.68;60.00;102200.53;5031006;28;20033;-46
2021/10/24 11:19:31;;;;;;;9.65;6.07;;;;;;;12.53;60.12;102194.88;5039076;28;20021;-48
2021/10/24 11:21:57;;;;;;;17.45;6.20;;;;;;;12.53;60.46;102186.78;5035057;28;20036;-48
2021/10/24 11:24:23;;;;;;;10.68;6.53;;;;;;;12.59;59.54;102188.00;5049899;28;20029;-49
2021/10/24 11:26:56;;;;;;;13.43;6.72;;;;;;;12.69;60.37;102186.00;5036264;28;20033;-45
2021/10/24 11:29:22;;;;;;;10.63;6.00;;;;;;;13.08;59.52;102183.59;5042264;28;20033;-48
2021/10/24 11:31:47;;;;;;;14.98;5.75;;;;;;;12.82;60.02;102181.00;5033886;28;20029;-44
2021/10/24 11:34:29;;;;;;;11.70;5.95;;;;;;;12.77;60.21;102177.94;5044100;28;20040;-44
2021/10/24 11:36:55;;;;;;;11.52;5.90;;;;;;;12.79;59.90;102170.50;5040593;28;20025;-45
2021/10/24 11:39:23;;;;;;;12.73;5.85;;;;;;;12.84;58.68;102178.97;5041809;28;20107;-49
2021/10/24 11:41:48;;;;;;;12.02;5.85;;;;;;;13.03;59.01;102166.19;5043413;28;20033;-46
2021/10/24 11:44:14;;;;;;;13.75;6.00;;;;;;;13.29;58.10;102166.94;5033288;28;20056;-46
2021/10/24 11:46:39;;;;;;;15.40;5.43;;;;;;;13.25;58.37;102165.56;5032234;28;20018;-49
2021/10/24 11:49:05;;;;;;;9.95;5.15;;;;;;;13.36;57.56;102159.00;5038541;28;20532;-45
2021/10/24 11:51:36;;;;;;;11.63;5.75;;;;;;;13.68;58.43;102166.25;5035073;28;20155;-48
2021/10/24 11:54:07;;;;;;;7.40;5.43;;;;;;;13.44;56.80;102150.03;5048706;28;20064;-45
2021/10/24 11:57:01;;;;;;;14.50;6.10;;;;;;;13.21;57.34;102161.47;5039350;28;20079;-47
2021/10/24 11:59:38;;;;;;;13.93;5.93;;;;;;;13.45;57.35;102151.72;5048922;28;20041;-46
2021/10/24 12:02:08;;;;;;;14.63;6.10;;;;;;;13.55;57.74;102150.53;5048405;28;20033;-44
2021/10/24 12:04:33;;;;;;;13.52;5.82;;;;;;;13.70;57.23;102141.75;5036445;28;20044;-46
2021/10/24 12:07:02;;;;;;;10.13;6.13;;;;;;;13.40;57.75;102146.81;5034493;28;20026;-45
2021/10/24 12:09:31;;;;;;;10.25;6.40;;;;;;;13.42;56.91;102127.72;5045918;28;20111;-46
2021/10/24 12:12:15;;;;;;;16.58;6.00;;;;;;;13.30;58.16;102138.06;5051676;28;20037;-46
2021/10/24 12:14:56;;;;;;;10.30;5.57;;;;;;;13.46;58.13;102129.09;5048739;28;20693;-45
2021/10/24 12:17:21;;;;;;;10.10;5.82;;;;;;;13.48;57.43;102127.03;5033322;28;20399;-44
2021/10/24 12:19:47;;;;;;;11.27;6.20;;;;;;;13.49;57.57;102118.78;5042696;28;20545;-45
2021/10/24 12:22:12;;;;;;;13.55;5.80;;;;;;;13.53;57.86;102113.84;5035744;28;20489;-47
2021/10/24 12:24:46;;;;;;;11.88;5.97;;;;;;;13.25;56.83;102111.47;5044806;28;20030;-45
2021/10/24 12:27:24;;;;;;;12.77;6.38;;;;;;;13.17;57.41;102104.22;5040324;28;20025;-45
2021/10/24 12:29:57;;;;;;;9.50;5.70;;;;;;;13.13;58.10;102096.59;5042256;28;20044;-44
2021/10/24 12:32:23;;;;;;;10.48;5.22;;;;;;;13.21;55.87;102093.91;5049284;28;20120;-47
2021/10/24 12:35:09;;;;;;;14.52;5.43;;;;;;;13.50;55.43;102097.97;5052311;28;20418;-45
2021/10/24 12:37:37;;;;;;;10.05;5.88;;;;;;;13.54;56.69;102085.81;5045356;28;20122;-44
2021/10/24 12:40:24;;;;;;;10.80;5.63;;;;;;;14.01;57.00;102087.75;5064282;28;20411;-45
2021/10/24 12:43:07;;;;;;;11.50;5.77;;;;;;;14.06;56.05;102088.06;5056832;28;20057;-45
2021/10/24 12:45:53;;;;;;;11.52;5.50;;;;;;;14.16;56.01;102083.25;5056415;28;20325;-48
2021/10/24 12:48:23;;;;;;;10.93;5.30;;;;;;;14.76;54.49;102079.09;5044015;28;20109;-45
2021/10/24 12:50:50;;;;;;;9.18;5.22;;;;;;;15.09;53.83;102079.72;5052047;28;20029;-45
2021/10/24 12:53:18;;;;;;;13.30;5.38;;;;;;;15.41;52.32;102071.50;5063049;28;20029;-44
2021/10/24 12:56:04;;;;;;;14.55;5.57;;;;;;;16.27;49.47;102070.03;5048107;28;20024;-48
2021/10/24 12:58:30;;;;;;;12.45;4.68;;;;;;;15.48;48.61;102062.44;5039235;28;20037;-45
2021/10/24 13:00:56;;;;;;;10.07;5.32;;;;;;;15.86;48.79;102064.25;5040100;28;20033;-46
2021/10/24 13:03:21;;;;;;;10.63;5.35;;;;;;;16.04;48.21;102056.59;5048962;28;20417;-47
2021/10/24 13:05:46;;;;;;;12.05;5.45;;;;;;;16.09;48.93;102054.16;5053187;28;20548;-45
2021/10/24 13:08:12;;;;;;;10.57;5.40;;;;;;;16.11;48.43;102062.09;5049320;28;20032;-47
2021/10/24 13:10:37;;;;;;;11.10;4.78;;;;;;;16.71;47.29;102058.22;5049223;28;20021;-46
2021/10/24 13:13:02;;;;;;;12.57;4.93;;;;;;;16.61;48.12;102063.09;5050428;28;20017;-48
2021/10/24 13:15:28;;;;;;;13.27;4.95;;;;;;;15.85;48.67;102044.44;5048698;28;20027;-45
2021/10/24 13:17:53;;;;;;;13.63;5.18;;;;;;;16.33;49.00;102050.25;5042429;28;20030;-45
2021/10/24 13:20:19;;;;;;;13.73;5.55;;;;;;;16.22;48.04;102045.34;5043609;28;20087;-45
2021/10/24 13:22:54;;;;;;;12.07;5.03;;;;;;;16.03;48.24;102041.31;5045361;28;20038;-48
2021/10/24 13:25:24;;;;;;;9.50;4.45;;;;;;;16.22;48.15;102037.19;5035227;28;20436;-45
2021/10/24 13:27:50;;;;;;;10.88;4.95;;;;;;;15.73;48.33;102035.91;5051467;28;20032;-46
2021/10/24 13:30:16;;;;;;;9.73;4.65;;;;;;;16.24;48.33;102027.81;5048132;28;20502;-46
2021/10/24 13:32:41;;;;;;;8.30;4.38;;;;;;;16.63;47.08;102012.97;5039401;28;20025;-45
2021/10/24 13:35:07;;;;;;;10.88;4.28;;;;;;;16.08;47.84;102010.88;5038634;28;20028;-44
2021/10/24 13:37:32;;;;;;;9.60;3.88;;;;;;;16.18;48.68;102011.41;5042790;28;20493;-44
2021/10/24 13:39:58;;;;;;;9.77;4.30;;;;;;;16.11;47.71;102010.50;5038841;28;20036;-48
2021/10/24 13:42:24;;;;;;;8.77;4.63;;;;;;;15.87;48.75;102001.63;5041835;28;20033;-48
2021/10/24 13:44:49;;;;;;;11.70;4.70;;;;;;;15.82;47.79;102000.50;5044624;28;20496;-45
2021/10/24 13:47:15;;;;;;;9.65;4.32;;;;;;;15.42;48.69;101997.19;5048267;28;20029;-46
2021/10/24 13:49:41;;;;;;;10.38;4.40;;;;;;;16.13;47.04;101989.41;5045856;28;20029;-49
2021/10/24 13:52:06;;;;;;;8.73;4.03;;;;;;;16.16;46.67;101983.59;5053402;28;20035;-46
2021/10/24 13:54:32;;;;;;;9.45;4.13;;;;;;;15.73;48.45;101984.31;5051706;28;20211;-46
2021/10/24 13:56:57;;;;;;;10.98;4.40;;;;;;;15.48;48.66;101975.59;5051903;28;20021;-47
2021/10/24 13:59:22;;;;;;;7.40;4.10;;;;;;;15.42;49.20;101973.63;5034066;28;20103;-47
2021/10/24 14:01:48;;;;;;;8.80;4.57;;;;;;;15.87;48.31;101963.63;5037272;28;20112;-44
2021/10/24 14:04:13;;;;;;;10.98;4.65;;;;;;;15.52;48.97;101970.63;5038523;28;20033;-46
2021/10/24 14:06:39;;;;;;;14.15;5.20;;;;;;;15.58;49.32;101965.28;5049522;28;20029;-48
2021/10/24 14:09:04;;;;;;;9.20;4.90;;;;;;;15.59;49.92;101966.16;5047360;28;20025;-45
2021/10/24 14:11:29;;;;;;;9.88;5.40;;;;;;;15.66;49.27;101969.78;5049231;28;20068;-46
2021/10/24 14:13:55;;;;;;;8.07;5.10;;;;;;;15.55;50.79;101967.53;5043026;28;20037;-46
2021/10/24 14:16:21;;;;;;;11.27;5.90;;;;;;;15.66;50.71;101966.22;5044762;28;20033;-46
2021/10/24 14:18:46;;;;;;;15.95;6.25;;;;;;;15.68;50.96;101959.59;5032225;28;20092;-47
2021/10/24 14:21:12;;;;;;;9.23;5.93;;;;;;;15.50;51.20;101962.66;5036576;28;20022;-45
2021/10/24 14:23:37;;;;;;;13.63;6.10;;;;;;;15.54;51.89;101955.84;5046172;28;20024;-47
2021/10/24 14:26:04;;;;;;;11.27;6.68;;;;;;;15.47;51.62;101952.19;5052284;28;20108;-46
2021/10/24 14:28:30;;;;;;;13.00;6.03;;;;;;;15.69;51.37;101955.03;5051341;28;20021;-45
2021/10/24 14:30:55;;;;;;;16.00;6.57;;;;;;;15.44;51.59;101958.00;5036345;28;20029;-44
2021/10/24 14:33:21;;;;;;;7.38;6.15;;;;;;;15.08;52.49;101947.88;5043692;28;20353;-45
2021/10/24 14:35:46;;;;;;;21.30;6.95;;;;;;;15.10;52.19;101942.28;5036506;28;20107;-46
2021/10/24 14:38:13;;;;;;;13.95;6.53;;;;;;;14.75;52.98;101938.38;5047997;28;20384;-46
2021/10/24 14:40:38;;;;;;;9.75;6.28;;;;;;;14.91;54.12;101940.94;5046693;28;20078;-47
2021/10/24 14:43:03;;;;;;;11.60;6.13;;;;;;;14.94;53.44;101929.72;5050227;28;20029;-45
2021/10/24 14:45:29;;;;;;;12.90;5.70;;;;;;;14.73;53.34;101932.28;5037133;28;20053;-45
2021/10/24 14:47:55;;;;;;;9.90;6.43;;;;;;;14.79;54.16;101932.38;5045817;28;20033;-46
2021/10/24 14:50:21;;;;;;;12.32;5.72;;;;;;;14.46;54.74;101935.34;5035669;28;20495;-44
2021/10/24 14:52:47;;;;;;;13.13;6.18;;;;;;;14.79;54.47;101928.84;5050344;28;20049;-47
2021/10/24 14:55:13;;;;;;;13.43;5.70;;;;;;;15.02;54.05;101926.09;5044135;28;20029;-46
2021/10/24 14:57:38;;;;;;;12.15;6.00;;;;;;;15.12;53.04;101932.09;5040697;28;20496;-48
2021/10/24 15:00:05;;;;;;;15.25;6.35;;;;;;;15.05;52.61;101931.97;5033823;28;20018;-45
2021/10/24 15:02:30;;;;;;;12.43;5.73;;;;;;;14.94;52.76;101924.28;5033327;28;20029;-44
2021/10/24 15:04:56;;;;;;;9.75;5.38;;;;;;;15.01;53.67;101930.69;5035050;28;20041;-44
2021/10/24 15:07:21;;;;;;;8.35;5.35;;;;;;;14.93;53.98;101928.88;5028425;28;20063;-43
2021/10/24 15:09:47;;;;;;;8.25;5.03;;;;;;;15.08;53.18;101919.91;5044412;28;20033;-44
2021/10/24 15:12:13;;;;;;;9.27;4.78;;;;;;;14.81;53.84;101916.78;5044800;28;20345;-45